sensor_id;sensor_type;location;lat;lon;timestamp;temperature;humidity
11597;DHT22;5854;48.072;16.286;2023-12-29T00:01:37;4.30;85.30
11597;DHT22;5854;48.072;16.286;2023-12-29T00:04:04;4.30;85.10
11597;DHT22;5854;48.072;16.286;2023-12-29T00:06:31;4.30;84.60
11597;DHT22;5854;48.072;16.286;2023-12-29T00:08:58;4.30;84.50
11597;DHT22;5854;48.072;16.286;2023-12-29T00:11:26;4.30;84.90
11597;DHT22;5854;48.072;16.286;2023-12-29T00:13:55;4.30;85.20
11597;DHT22;5854;48.072;16.286;2023-12-29T00:16:24;4.30;84.80
11597;DHT22;5854;48.072;16.286;2023-12-29T00:18:51;4.40;84.80
11597;DHT22;5854;48.072;16.286;2023-12-29T00:21:18;4.40;84.80
11597;DHT22;5854;48.072;16.286;2023-12-29T00:23:46;4.40;84.30
11597;DHT22;5854;48.072;16.286;2023-12-29T00:26:16;4.30;84.20
11597;DHT22;5854;48.072;16.286;2023-12-29T00:28:43;4.20;84.30
11597;DHT22;5854;48.072;16.286;2023-12-29T00:31:14;4.20;85.30
11597;DHT22;5854;48.072;16.286;2023-12-29T00:33:43;4.30;85.60
11597;DHT22;5854;48.072;16.286;2023-12-29T00:36:15;4.30;85.30
11597;DHT22;5854;48.072;16.286;2023-12-29T00:38:42;4.30;85.00
11597;DHT22;5854;48.072;16.286;2023-12-29T00:41:10;4.30;85.10
11597;DHT22;5854;48.072;16.286;2023-12-29T00:43:37;4.40;85.10
11597;DHT22;5854;48.072;16.286;2023-12-29T00:46:05;4.40;85.30
11597;DHT22;5854;48.072;16.286;2023-12-29T00:48:32;4.40;85.10
11597;DHT22;5854;48.072;16.286;2023-12-29T00:51:02;4.40;84.70
11597;DHT22;5854;48.072;16.286;2023-12-29T00:53:30;4.30;84.40
11597;DHT22;5854;48.072;16.286;2023-12-29T00:55:59;4.30;85.60
11597;DHT22;5854;48.072;16.286;2023-12-29T00:58:26;4.30;85.60
11597;DHT22;5854;48.072;16.286;2023-12-29T01:00:54;4.30;85.50
11597;DHT22;5854;48.072;16.286;2023-12-29T01:03:21;4.30;85.10
11597;DHT22;5854;48.072;16.286;2023-12-29T01:05:48;4.30;85.20
11597;DHT22;5854;48.072;16.286;2023-12-29T01:08:17;4.40;85.70
11597;DHT22;5854;48.072;16.286;2023-12-29T01:10:44;4.30;84.80
11597;DHT22;5854;48.072;16.286;2023-12-29T01:13:11;4.30;85.40
11597;DHT22;5854;48.072;16.286;2023-12-29T01:15:39;4.30;85.30
11597;DHT22;5854;48.072;16.286;2023-12-29T01:18:09;4.30;85.30
11597;DHT22;5854;48.072;16.286;2023-12-29T01:20:37;4.30;85.90
11597;DHT22;5854;48.072;16.286;2023-12-29T01:23:05;4.20;86.30
11597;DHT22;5854;48.072;16.286;2023-12-29T01:25:33;4.30;86.30
11597;DHT22;5854;48.072;16.286;2023-12-29T01:28:01;4.30;86.10
11597;DHT22;5854;48.072;16.286;2023-12-29T01:30:28;4.30;86.10
11597;DHT22;5854;48.072;16.286;2023-12-29T01:32:55;4.30;86.00
11597;DHT22;5854;48.072;16.286;2023-12-29T01:35:23;4.30;86.50
11597;DHT22;5854;48.072;16.286;2023-12-29T01:37:50;4.30;86.40
11597;DHT22;5854;48.072;16.286;2023-12-29T01:40:17;4.30;86.30
11597;DHT22;5854;48.072;16.286;2023-12-29T01:42:46;4.30;86.20
11597;DHT22;5854;48.072;16.286;2023-12-29T01:45:20;4.30;86.40
11597;DHT22;5854;48.072;16.286;2023-12-29T01:47:49;4.30;86.50
11597;DHT22;5854;48.072;16.286;2023-12-29T01:50:17;4.20;87.10
11597;DHT22;5854;48.072;16.286;2023-12-29T01:52:45;4.30;86.60
11597;DHT22;5854;48.072;16.286;2023-12-29T01:55:16;4.30;86.50
11597;DHT22;5854;48.072;16.286;2023-12-29T01:57:47;4.30;87.00
11597;DHT22;5854;48.072;16.286;2023-12-29T02:00:16;4.20;86.70
11597;DHT22;5854;48.072;16.286;2023-12-29T02:02:44;4.20;87.20
11597;DHT22;5854;48.072;16.286;2023-12-29T02:05:14;4.20;87.70
11597;DHT22;5854;48.072;16.286;2023-12-29T02:07:42;4.20;87.50
11597;DHT22;5854;48.072;16.286;2023-12-29T02:10:09;4.30;87.40
11597;DHT22;5854;48.072;16.286;2023-12-29T02:12:39;4.30;86.90
11597;DHT22;5854;48.072;16.286;2023-12-29T02:15:09;4.30;87.10
11597;DHT22;5854;48.072;16.286;2023-12-29T02:17:40;4.30;87.00
11597;DHT22;5854;48.072;16.286;2023-12-29T02:20:09;4.20;87.60
11597;DHT22;5854;48.072;16.286;2023-12-29T02:22:36;4.20;88.40
11597;DHT22;5854;48.072;16.286;2023-12-29T02:25:05;4.20;88.00
11597;DHT22;5854;48.072;16.286;2023-12-29T02:27:41;4.20;88.60
11597;DHT22;5854;48.072;16.286;2023-12-29T02:30:18;4.20;88.20
11597;DHT22;5854;48.072;16.286;2023-12-29T02:32:49;4.20;87.60
11597;DHT22;5854;48.072;16.286;2023-12-29T02:35:24;4.20;87.60
11597;DHT22;5854;48.072;16.286;2023-12-29T02:37:53;4.30;87.90
11597;DHT22;5854;48.072;16.286;2023-12-29T02:40:23;4.30;87.80
11597;DHT22;5854;48.072;16.286;2023-12-29T02:42:51;4.30;87.30
11597;DHT22;5854;48.072;16.286;2023-12-29T02:45:18;4.30;87.00
11597;DHT22;5854;48.072;16.286;2023-12-29T02:47:46;4.40;86.50
11597;DHT22;5854;48.072;16.286;2023-12-29T02:50:13;4.40;86.00
11597;DHT22;5854;48.072;16.286;2023-12-29T02:52:41;4.30;86.20
11597;DHT22;5854;48.072;16.286;2023-12-29T02:55:08;4.30;86.50
11597;DHT22;5854;48.072;16.286;2023-12-29T02:57:37;4.30;86.30
11597;DHT22;5854;48.072;16.286;2023-12-29T03:00:05;4.30;85.90
11597;DHT22;5854;48.072;16.286;2023-12-29T03:02:34;4.20;86.70
11597;DHT22;5854;48.072;16.286;2023-12-29T03:05:02;4.30;87.00
11597;DHT22;5854;48.072;16.286;2023-12-29T03:07:29;4.30;86.80
11597;DHT22;5854;48.072;16.286;2023-12-29T03:09:57;4.20;86.80
11597;DHT22;5854;48.072;16.286;2023-12-29T03:12:24;4.20;87.20
11597;DHT22;5854;48.072;16.286;2023-12-29T03:14:54;4.20;87.00
11597;DHT22;5854;48.072;16.286;2023-12-29T03:17:21;4.20;87.40
11597;DHT22;5854;48.072;16.286;2023-12-29T03:19:48;4.20;87.70
11597;DHT22;5854;48.072;16.286;2023-12-29T03:22:16;4.20;87.50
11597;DHT22;5854;48.072;16.286;2023-12-29T03:24:43;4.20;87.10
11597;DHT22;5854;48.072;16.286;2023-12-29T03:27:10;4.20;87.30
11597;DHT22;5854;48.072;16.286;2023-12-29T03:29:38;4.30;87.40
11597;DHT22;5854;48.072;16.286;2023-12-29T03:32:06;4.30;87.00
11597;DHT22;5854;48.072;16.286;2023-12-29T03:34:34;4.30;86.60
11597;DHT22;5854;48.072;16.286;2023-12-29T03:37:01;4.30;86.80
11597;DHT22;5854;48.072;16.286;2023-12-29T03:39:28;4.20;86.70
11597;DHT22;5854;48.072;16.286;2023-12-29T03:41:56;4.20;87.50
11597;DHT22;5854;48.072;16.286;2023-12-29T03:44:23;4.10;87.90
11597;DHT22;5854;48.072;16.286;2023-12-29T03:46:51;4.10;89.10
11597;DHT22;5854;48.072;16.286;2023-12-29T03:49:19;4.20;88.70
11597;DHT22;5854;48.072;16.286;2023-12-29T03:51:46;4.20;88.80
11597;DHT22;5854;48.072;16.286;2023-12-29T03:54:14;4.20;89.00
11597;DHT22;5854;48.072;16.286;2023-12-29T03:56:42;4.20;88.60
11597;DHT22;5854;48.072;16.286;2023-12-29T03:59:10;4.20;89.50
11597;DHT22;5854;48.072;16.286;2023-12-29T04:01:37;4.20;89.30
11597;DHT22;5854;48.072;16.286;2023-12-29T04:04:04;4.20;90.00
11597;DHT22;5854;48.072;16.286;2023-12-29T04:06:33;4.20;90.80
11597;DHT22;5854;48.072;16.286;2023-12-29T04:09:00;4.20;90.80
11597;DHT22;5854;48.072;16.286;2023-12-29T04:11:27;4.20;91.50
11597;DHT22;5854;48.072;16.286;2023-12-29T04:13:55;4.30;91.60
11597;DHT22;5854;48.072;16.286;2023-12-29T04:16:22;4.30;91.10
11597;DHT22;5854;48.072;16.286;2023-12-29T04:18:49;4.50;92.10
11597;DHT22;5854;48.072;16.286;2023-12-29T04:21:17;4.60;91.30
11597;DHT22;5854;48.072;16.286;2023-12-29T04:23:45;4.70;92.60
11597;DHT22;5854;48.072;16.286;2023-12-29T04:26:12;4.60;89.40
11597;DHT22;5854;48.072;16.286;2023-12-29T04:28:40;4.50;88.00
11597;DHT22;5854;48.072;16.286;2023-12-29T04:31:07;4.50;88.10
11597;DHT22;5854;48.072;16.286;2023-12-29T04:33:34;4.70;88.30
11597;DHT22;5854;48.072;16.286;2023-12-29T04:36:01;4.70;86.30
11597;DHT22;5854;48.072;16.286;2023-12-29T04:38:29;4.70;85.70
11597;DHT22;5854;48.072;16.286;2023-12-29T04:40:58;4.70;85.10
11597;DHT22;5854;48.072;16.286;2023-12-29T04:43:25;4.60;85.20
11597;DHT22;5854;48.072;16.286;2023-12-29T04:45:52;4.50;85.60
11597;DHT22;5854;48.072;16.286;2023-12-29T04:48:19;4.50;86.00
11597;DHT22;5854;48.072;16.286;2023-12-29T04:50:47;4.40;85.80
11597;DHT22;5854;48.072;16.286;2023-12-29T04:53:14;4.40;85.90
11597;DHT22;5854;48.072;16.286;2023-12-29T04:55:41;4.40;85.90
11597;DHT22;5854;48.072;16.286;2023-12-29T04:58:10;4.40;86.10
11597;DHT22;5854;48.072;16.286;2023-12-29T05:00:37;4.30;86.30
11597;DHT22;5854;48.072;16.286;2023-12-29T05:03:04;4.30;87.40
11597;DHT22;5854;48.072;16.286;2023-12-29T05:05:32;4.30;87.20
11597;DHT22;5854;48.072;16.286;2023-12-29T05:07:59;4.30;87.50
11597;DHT22;5854;48.072;16.286;2023-12-29T05:10:26;4.30;87.70
11597;DHT22;5854;48.072;16.286;2023-12-29T05:12:54;4.30;87.60
11597;DHT22;5854;48.072;16.286;2023-12-29T05:15:22;4.30;87.10
11597;DHT22;5854;48.072;16.286;2023-12-29T05:17:50;4.20;87.40
11597;DHT22;5854;48.072;16.286;2023-12-29T05:20:17;4.20;88.00
11597;DHT22;5854;48.072;16.286;2023-12-29T05:22:44;4.20;89.40
11597;DHT22;5854;48.072;16.286;2023-12-29T05:25:12;4.20;90.20
11597;DHT22;5854;48.072;16.286;2023-12-29T05:27:39;4.20;90.60
11597;DHT22;5854;48.072;16.286;2023-12-29T05:30:07;4.20;91.50
11597;DHT22;5854;48.072;16.286;2023-12-29T05:32:35;4.30;90.60
11597;DHT22;5854;48.072;16.286;2023-12-29T05:35:03;4.20;89.30
11597;DHT22;5854;48.072;16.286;2023-12-29T05:37:31;4.20;88.70
11597;DHT22;5854;48.072;16.286;2023-12-29T05:40:01;4.20;87.70
11597;DHT22;5854;48.072;16.286;2023-12-29T05:42:30;4.20;87.70
11597;DHT22;5854;48.072;16.286;2023-12-29T05:44:57;4.20;86.80
11597;DHT22;5854;48.072;16.286;2023-12-29T05:47:24;4.20;86.30
11597;DHT22;5854;48.072;16.286;2023-12-29T05:49:53;4.20;86.20
11597;DHT22;5854;48.072;16.286;2023-12-29T05:52:21;4.20;86.40
11597;DHT22;5854;48.072;16.286;2023-12-29T05:54:48;4.30;85.70
11597;DHT22;5854;48.072;16.286;2023-12-29T05:57:15;4.20;85.30
11597;DHT22;5854;48.072;16.286;2023-12-29T05:59:43;4.20;84.70
11597;DHT22;5854;48.072;16.286;2023-12-29T06:02:10;4.20;85.10
11597;DHT22;5854;48.072;16.286;2023-12-29T06:04:37;4.20;85.50
11597;DHT22;5854;48.072;16.286;2023-12-29T06:07:06;4.20;85.70
11597;DHT22;5854;48.072;16.286;2023-12-29T06:09:33;4.10;85.40
11597;DHT22;5854;48.072;16.286;2023-12-29T06:12:02;4.00;84.90
11597;DHT22;5854;48.072;16.286;2023-12-29T06:14:29;3.90;87.30
11597;DHT22;5854;48.072;16.286;2023-12-29T06:16:57;4.00;88.00
11597;DHT22;5854;48.072;16.286;2023-12-29T06:19:24;4.00;88.00
11597;DHT22;5854;48.072;16.286;2023-12-29T06:21:52;4.00;87.60
11597;DHT22;5854;48.072;16.286;2023-12-29T06:24:21;4.00;88.00
11597;DHT22;5854;48.072;16.286;2023-12-29T06:26:48;4.00;88.20
11597;DHT22;5854;48.072;16.286;2023-12-29T06:29:15;4.00;88.70
11597;DHT22;5854;48.072;16.286;2023-12-29T06:31:43;4.00;88.40
11597;DHT22;5854;48.072;16.286;2023-12-29T06:34:10;4.00;88.60
11597;DHT22;5854;48.072;16.286;2023-12-29T06:36:37;4.10;88.70
11597;DHT22;5854;48.072;16.286;2023-12-29T06:39:05;4.00;88.90
11597;DHT22;5854;48.072;16.286;2023-12-29T06:41:34;4.00;89.20
11597;DHT22;5854;48.072;16.286;2023-12-29T06:44:01;4.00;90.10
11597;DHT22;5854;48.072;16.286;2023-12-29T06:46:28;4.00;89.80
11597;DHT22;5854;48.072;16.286;2023-12-29T06:48:58;3.90;89.60
11597;DHT22;5854;48.072;16.286;2023-12-29T06:51:24;3.90;90.10
11597;DHT22;5854;48.072;16.286;2023-12-29T06:53:51;3.90;90.70
11597;DHT22;5854;48.072;16.286;2023-12-29T06:56:19;3.90;91.20
11597;DHT22;5854;48.072;16.286;2023-12-29T06:58:48;3.90;91.30
11597;DHT22;5854;48.072;16.286;2023-12-29T07:01:15;4.00;91.50
11597;DHT22;5854;48.072;16.286;2023-12-29T07:03:42;3.90;92.50
11597;DHT22;5854;48.072;16.286;2023-12-29T07:06:10;4.00;92.80
11597;DHT22;5854;48.072;16.286;2023-12-29T07:08:38;4.00;92.90
11597;DHT22;5854;48.072;16.286;2023-12-29T07:11:09;4.10;91.90
11597;DHT22;5854;48.072;16.286;2023-12-29T07:13:39;4.10;90.90
11597;DHT22;5854;48.072;16.286;2023-12-29T07:16:08;4.10;90.50
11597;DHT22;5854;48.072;16.286;2023-12-29T07:18:36;4.10;91.40
11597;DHT22;5854;48.072;16.286;2023-12-29T07:21:04;4.10;91.30
11597;DHT22;5854;48.072;16.286;2023-12-29T07:23:31;4.10;91.80
11597;DHT22;5854;48.072;16.286;2023-12-29T07:25:59;4.10;93.00
11597;DHT22;5854;48.072;16.286;2023-12-29T07:28:26;4.10;93.30
11597;DHT22;5854;48.072;16.286;2023-12-29T07:30:53;4.20;94.20
11597;DHT22;5854;48.072;16.286;2023-12-29T07:33:22;4.40;94.60
11597;DHT22;5854;48.072;16.286;2023-12-29T07:35:50;4.50;94.20
11597;DHT22;5854;48.072;16.286;2023-12-29T07:38:17;4.60;93.20
11597;DHT22;5854;48.072;16.286;2023-12-29T07:40:44;4.70;92.90
11597;DHT22;5854;48.072;16.286;2023-12-29T07:43:13;4.70;92.80
11597;DHT22;5854;48.072;16.286;2023-12-29T07:45:40;4.70;93.10
11597;DHT22;5854;48.072;16.286;2023-12-29T07:48:09;4.70;92.90
11597;DHT22;5854;48.072;16.286;2023-12-29T07:50:37;4.70;91.50
11597;DHT22;5854;48.072;16.286;2023-12-29T07:53:05;4.80;91.40
11597;DHT22;5854;48.072;16.286;2023-12-29T07:55:36;4.90;91.00
11597;DHT22;5854;48.072;16.286;2023-12-29T07:58:04;5.10;90.80
11597;DHT22;5854;48.072;16.286;2023-12-29T08:00:32;5.10;88.10
11597;DHT22;5854;48.072;16.286;2023-12-29T08:03:00;5.20;89.70
11597;DHT22;5854;48.072;16.286;2023-12-29T08:05:27;5.40;88.20
11597;DHT22;5854;48.072;16.286;2023-12-29T08:07:56;5.50;87.70
11597;DHT22;5854;48.072;16.286;2023-12-29T08:10:23;5.70;89.30
11597;DHT22;5854;48.072;16.286;2023-12-29T08:12:50;5.90;90.70
11597;DHT22;5854;48.072;16.286;2023-12-29T08:15:18;6.10;88.40
11597;DHT22;5854;48.072;16.286;2023-12-29T08:17:45;6.40;88.30
11597;DHT22;5854;48.072;16.286;2023-12-29T08:20:12;6.60;88.60
11597;DHT22;5854;48.072;16.286;2023-12-29T08:22:41;6.70;86.70
11597;DHT22;5854;48.072;16.286;2023-12-29T08:25:10;6.80;82.70
11597;DHT22;5854;48.072;16.286;2023-12-29T08:27:38;6.90;79.00
11597;DHT22;5854;48.072;16.286;2023-12-29T08:30:07;6.80;77.10
11597;DHT22;5854;48.072;16.286;2023-12-29T08:32:35;6.70;78.50
11597;DHT22;5854;48.072;16.286;2023-12-29T08:35:02;6.70;78.80
11597;DHT22;5854;48.072;16.286;2023-12-29T08:37:30;6.80;78.60
11597;DHT22;5854;48.072;16.286;2023-12-29T08:39:59;6.90;77.00
11597;DHT22;5854;48.072;16.286;2023-12-29T08:42:27;7.00;77.50
11597;DHT22;5854;48.072;16.286;2023-12-29T08:44:55;7.10;78.50
11597;DHT22;5854;48.072;16.286;2023-12-29T08:47:22;7.10;77.40
11597;DHT22;5854;48.072;16.286;2023-12-29T08:49:49;7.10;77.90
11597;DHT22;5854;48.072;16.286;2023-12-29T08:52:17;6.90;74.70
11597;DHT22;5854;48.072;16.286;2023-12-29T08:54:52;6.90;77.60
11597;DHT22;5854;48.072;16.286;2023-12-29T08:57:19;7.00;76.20
11597;DHT22;5854;48.072;16.286;2023-12-29T08:59:48;7.00;77.70
11597;DHT22;5854;48.072;16.286;2023-12-29T09:02:16;7.10;77.80
11597;DHT22;5854;48.072;16.286;2023-12-29T09:04:44;7.10;77.20
11597;DHT22;5854;48.072;16.286;2023-12-29T09:07:11;7.20;78.10
11597;DHT22;5854;48.072;16.286;2023-12-29T09:09:38;7.10;74.60
11597;DHT22;5854;48.072;16.286;2023-12-29T09:12:06;7.30;79.00
11597;DHT22;5854;48.072;16.286;2023-12-29T09:14:33;7.40;76.80
11597;DHT22;5854;48.072;16.286;2023-12-29T09:17:02;7.50;75.90
11597;DHT22;5854;48.072;16.286;2023-12-29T09:19:30;7.60;73.90
11597;DHT22;5854;48.072;16.286;2023-12-29T09:21:58;7.70;74.00
11597;DHT22;5854;48.072;16.286;2023-12-29T09:24:25;7.70;72.80
11597;DHT22;5854;48.072;16.286;2023-12-29T09:26:52;7.80;74.60
11597;DHT22;5854;48.072;16.286;2023-12-29T09:29:20;7.90;75.00
11597;DHT22;5854;48.072;16.286;2023-12-29T09:31:47;8.00;76.80
11597;DHT22;5854;48.072;16.286;2023-12-29T09:34:16;8.30;82.60
11597;DHT22;5854;48.072;16.286;2023-12-29T09:36:43;8.50;74.90
11597;DHT22;5854;48.072;16.286;2023-12-29T09:39:10;8.40;69.20
11597;DHT22;5854;48.072;16.286;2023-12-29T09:41:42;8.40;71.60
11597;DHT22;5854;48.072;16.286;2023-12-29T09:44:14;8.50;68.10
11597;DHT22;5854;48.072;16.286;2023-12-29T09:46:42;8.40;70.50
11597;DHT22;5854;48.072;16.286;2023-12-29T09:49:10;8.70;72.50
11597;DHT22;5854;48.072;16.286;2023-12-29T09:51:40;8.70;63.70
11597;DHT22;5854;48.072;16.286;2023-12-29T09:54:08;9.50;62.90
11597;DHT22;5854;48.072;16.286;2023-12-29T09:56:38;9.70;59.00
11597;DHT22;5854;48.072;16.286;2023-12-29T09:59:06;9.90;56.10
11597;DHT22;5854;48.072;16.286;2023-12-29T10:01:36;10.00;55.30
11597;DHT22;5854;48.072;16.286;2023-12-29T10:04:04;10.60;54.30
11597;DHT22;5854;48.072;16.286;2023-12-29T10:06:36;11.20;50.80
11597;DHT22;5854;48.072;16.286;2023-12-29T10:09:06;11.50;50.20
11597;DHT22;5854;48.072;16.286;2023-12-29T10:11:38;11.50;48.50
11597;DHT22;5854;48.072;16.286;2023-12-29T10:14:18;11.40;49.60
11597;DHT22;5854;48.072;16.286;2023-12-29T10:16:53;11.70;47.70
11597;DHT22;5854;48.072;16.286;2023-12-29T10:19:33;11.50;49.10
11597;DHT22;5854;48.072;16.286;2023-12-29T10:22:10;11.50;49.20
11597;DHT22;5854;48.072;16.286;2023-12-29T10:24:43;11.70;47.70
11597;DHT22;5854;48.072;16.286;2023-12-29T10:27:11;11.50;46.60
11597;DHT22;5854;48.072;16.286;2023-12-29T10:29:39;11.80;46.30
11597;DHT22;5854;48.072;16.286;2023-12-29T10:32:06;11.80;44.80
11597;DHT22;5854;48.072;16.286;2023-12-29T10:34:35;11.80;45.90
11597;DHT22;5854;48.072;16.286;2023-12-29T10:37:03;11.90;46.00
11597;DHT22;5854;48.072;16.286;2023-12-29T10:39:34;11.80;45.60
11597;DHT22;5854;48.072;16.286;2023-12-29T10:42:05;12.50;44.70
11597;DHT22;5854;48.072;16.286;2023-12-29T10:44:35;12.70;43.80
11597;DHT22;5854;48.072;16.286;2023-12-29T10:47:09;12.60;42.70
11597;DHT22;5854;48.072;16.286;2023-12-29T10:49:37;12.60;43.20
11597;DHT22;5854;48.072;16.286;2023-12-29T10:52:11;12.50;43.80
11597;DHT22;5854;48.072;16.286;2023-12-29T10:54:40;12.70;43.90
11597;DHT22;5854;48.072;16.286;2023-12-29T10:57:11;12.90;43.40
11597;DHT22;5854;48.072;16.286;2023-12-29T10:59:39;12.60;42.50
11597;DHT22;5854;48.072;16.286;2023-12-29T11:02:06;12.50;43.00
11597;DHT22;5854;48.072;16.286;2023-12-29T11:04:40;12.50;44.40
11597;DHT22;5854;48.072;16.286;2023-12-29T11:07:07;12.40;43.50
11597;DHT22;5854;48.072;16.286;2023-12-29T11:09:35;12.80;42.50
11597;DHT22;5854;48.072;16.286;2023-12-29T11:12:04;12.60;42.50
11597;DHT22;5854;48.072;16.286;2023-12-29T11:14:33;12.70;43.70
11597;DHT22;5854;48.072;16.286;2023-12-29T11:17:01;12.90;43.10
11597;DHT22;5854;48.072;16.286;2023-12-29T11:19:30;12.70;42.80
11597;DHT22;5854;48.072;16.286;2023-12-29T11:21:57;12.40;43.00
11597;DHT22;5854;48.072;16.286;2023-12-29T11:24:25;12.60;43.30
11597;DHT22;5854;48.072;16.286;2023-12-29T11:26:53;12.70;42.30
11597;DHT22;5854;48.072;16.286;2023-12-29T11:29:20;13.00;43.00
11597;DHT22;5854;48.072;16.286;2023-12-29T11:31:52;13.50;42.00
11597;DHT22;5854;48.072;16.286;2023-12-29T11:34:23;13.70;43.10
11597;DHT22;5854;48.072;16.286;2023-12-29T11:36:59;13.70;40.10
11597;DHT22;5854;48.072;16.286;2023-12-29T11:39:38;13.80;40.70
11597;DHT22;5854;48.072;16.286;2023-12-29T11:42:17;13.90;40.10
11597;DHT22;5854;48.072;16.286;2023-12-29T11:44:48;13.90;39.50
11597;DHT22;5854;48.072;16.286;2023-12-29T11:47:36;13.70;39.50
11597;DHT22;5854;48.072;16.286;2023-12-29T11:50:04;14.00;40.00
11597;DHT22;5854;48.072;16.286;2023-12-29T11:52:36;14.10;40.90
11597;DHT22;5854;48.072;16.286;2023-12-29T11:55:08;14.00;39.20
11597;DHT22;5854;48.072;16.286;2023-12-29T11:57:36;14.10;40.40
11597;DHT22;5854;48.072;16.286;2023-12-29T12:00:05;13.90;40.30
11597;DHT22;5854;48.072;16.286;2023-12-29T12:02:33;13.90;40.00
11597;DHT22;5854;48.072;16.286;2023-12-29T12:05:02;13.90;39.40
11597;DHT22;5854;48.072;16.286;2023-12-29T12:07:57;13.90;39.70
11597;DHT22;5854;48.072;16.286;2023-12-29T12:10:30;13.80;40.30
11597;DHT22;5854;48.072;16.286;2023-12-29T12:12:59;13.80;39.70
11597;DHT22;5854;48.072;16.286;2023-12-29T12:15:32;13.90;39.40
11597;DHT22;5854;48.072;16.286;2023-12-29T12:18:00;13.90;40.90
11597;DHT22;5854;48.072;16.286;2023-12-29T12:20:31;14.00;38.90
11597;DHT22;5854;48.072;16.286;2023-12-29T12:23:00;14.20;38.40
11597;DHT22;5854;48.072;16.286;2023-12-29T12:25:29;14.40;37.40
11597;DHT22;5854;48.072;16.286;2023-12-29T12:28:01;14.40;38.40
11597;DHT22;5854;48.072;16.286;2023-12-29T12:30:33;14.50;39.90
11597;DHT22;5854;48.072;16.286;2023-12-29T12:33:04;14.60;37.60
11597;DHT22;5854;48.072;16.286;2023-12-29T12:35:33;14.40;39.00
11597;DHT22;5854;48.072;16.286;2023-12-29T12:40:37;13.90;41.00
11597;DHT22;5854;48.072;16.286;2023-12-29T12:43:04;13.50;41.70
11597;DHT22;5854;48.072;16.286;2023-12-29T12:45:34;13.50;41.90
11597;DHT22;5854;48.072;16.286;2023-12-29T12:48:20;13.40;41.80
11597;DHT22;5854;48.072;16.286;2023-12-29T12:50:50;13.50;40.70
11597;DHT22;5854;48.072;16.286;2023-12-29T12:53:19;13.10;41.70
11597;DHT22;5854;48.072;16.286;2023-12-29T12:55:48;13.20;43.00
11597;DHT22;5854;48.072;16.286;2023-12-29T12:58:17;13.40;39.40
11597;DHT22;5854;48.072;16.286;2023-12-29T13:00:45;13.60;39.10
11597;DHT22;5854;48.072;16.286;2023-12-29T13:03:13;13.80;38.90
11597;DHT22;5854;48.072;16.286;2023-12-29T13:05:41;14.00;38.90
11597;DHT22;5854;48.072;16.286;2023-12-29T13:08:11;14.20;38.10
11597;DHT22;5854;48.072;16.286;2023-12-29T13:10:40;14.20;39.90
11597;DHT22;5854;48.072;16.286;2023-12-29T13:13:08;14.00;41.90
11597;DHT22;5854;48.072;16.286;2023-12-29T13:15:45;13.80;40.90
11597;DHT22;5854;48.072;16.286;2023-12-29T13:18:14;13.80;38.60
11597;DHT22;5854;48.072;16.286;2023-12-29T13:20:44;13.80;39.50
11597;DHT22;5854;48.072;16.286;2023-12-29T13:23:14;13.70;43.20
11597;DHT22;5854;48.072;16.286;2023-12-29T13:25:43;13.60;44.70
11597;DHT22;5854;48.072;16.286;2023-12-29T13:28:11;13.50;46.20
11597;DHT22;5854;48.072;16.286;2023-12-29T13:30:40;13.30;47.30
11597;DHT22;5854;48.072;16.286;2023-12-29T13:33:11;13.20;48.90
11597;DHT22;5854;48.072;16.286;2023-12-29T13:35:47;13.10;49.10
11597;DHT22;5854;48.072;16.286;2023-12-29T13:38:21;13.00;49.90
11597;DHT22;5854;48.072;16.286;2023-12-29T13:40:56;13.00;50.90
11597;DHT22;5854;48.072;16.286;2023-12-29T13:43:25;12.90;52.70
11597;DHT22;5854;48.072;16.286;2023-12-29T13:45:54;12.80;50.60
11597;DHT22;5854;48.072;16.286;2023-12-29T13:48:21;12.70;51.60
11597;DHT22;5854;48.072;16.286;2023-12-29T13:50:49;12.60;51.10
11597;DHT22;5854;48.072;16.286;2023-12-29T13:53:19;12.50;54.00
11597;DHT22;5854;48.072;16.286;2023-12-29T13:55:48;12.30;53.90
11597;DHT22;5854;48.072;16.286;2023-12-29T13:58:16;12.10;52.80
11597;DHT22;5854;48.072;16.286;2023-12-29T14:00:46;12.00;51.90
11597;DHT22;5854;48.072;16.286;2023-12-29T14:03:15;11.80;51.60
11597;DHT22;5854;48.072;16.286;2023-12-29T14:05:52;11.80;53.10
11597;DHT22;5854;48.072;16.286;2023-12-29T14:08:26;11.70;53.30
11597;DHT22;5854;48.072;16.286;2023-12-29T14:10:59;11.70;54.00
11597;DHT22;5854;48.072;16.286;2023-12-29T14:13:27;11.60;54.20
11597;DHT22;5854;48.072;16.286;2023-12-29T14:15:58;11.60;54.60
11597;DHT22;5854;48.072;16.286;2023-12-29T14:21:29;11.70;54.80
11597;DHT22;5854;48.072;16.286;2023-12-29T14:24:08;11.40;55.20
11597;DHT22;5854;48.072;16.286;2023-12-29T14:26:36;11.30;54.30
11597;DHT22;5854;48.072;16.286;2023-12-29T14:29:04;11.40;55.50
11597;DHT22;5854;48.072;16.286;2023-12-29T14:31:35;11.20;55.30
11597;DHT22;5854;48.072;16.286;2023-12-29T14:34:03;11.10;55.80
11597;DHT22;5854;48.072;16.286;2023-12-29T14:36:31;11.10;57.30
11597;DHT22;5854;48.072;16.286;2023-12-29T14:38:58;11.00;58.20
11597;DHT22;5854;48.072;16.286;2023-12-29T14:41:27;10.80;57.60
11597;DHT22;5854;48.072;16.286;2023-12-29T14:43:54;10.70;59.60
11597;DHT22;5854;48.072;16.286;2023-12-29T14:46:22;10.60;58.00
11597;DHT22;5854;48.072;16.286;2023-12-29T14:48:49;10.70;58.00
11597;DHT22;5854;48.072;16.286;2023-12-29T14:51:17;10.80;58.00
11597;DHT22;5854;48.072;16.286;2023-12-29T14:53:44;10.60;58.70
11597;DHT22;5854;48.072;16.286;2023-12-29T14:56:12;10.40;59.40
11597;DHT22;5854;48.072;16.286;2023-12-29T14:58:41;10.10;61.90
11597;DHT22;5854;48.072;16.286;2023-12-29T15:01:09;10.00;62.40
11597;DHT22;5854;48.072;16.286;2023-12-29T15:03:37;10.00;62.20
11597;DHT22;5854;48.072;16.286;2023-12-29T15:06:05;9.80;62.20
11597;DHT22;5854;48.072;16.286;2023-12-29T15:08:33;9.70;63.10
11597;DHT22;5854;48.072;16.286;2023-12-29T15:11:02;9.50;63.90
11597;DHT22;5854;48.072;16.286;2023-12-29T15:13:30;9.50;65.20
11597;DHT22;5854;48.072;16.286;2023-12-29T15:15:59;9.40;64.40
11597;DHT22;5854;48.072;16.286;2023-12-29T15:18:27;9.20;64.70
11597;DHT22;5854;48.072;16.286;2023-12-29T15:20:56;9.10;66.90
11597;DHT22;5854;48.072;16.286;2023-12-29T15:23:23;9.60;78.30
11597;DHT22;5854;48.072;16.286;2023-12-29T15:25:50;9.70;65.20
11597;DHT22;5854;48.072;16.286;2023-12-29T15:28:18;9.50;63.80
11597;DHT22;5854;48.072;16.286;2023-12-29T15:30:45;9.30;63.70
11597;DHT22;5854;48.072;16.286;2023-12-29T15:33:14;9.20;63.70
11597;DHT22;5854;48.072;16.286;2023-12-29T15:35:41;9.10;65.80
11597;DHT22;5854;48.072;16.286;2023-12-29T15:38:09;8.90;64.60
11597;DHT22;5854;48.072;16.286;2023-12-29T15:40:36;8.90;65.80
11597;DHT22;5854;48.072;16.286;2023-12-29T15:43:03;8.80;66.00
11597;DHT22;5854;48.072;16.286;2023-12-29T15:45:33;8.70;65.90
11597;DHT22;5854;48.072;16.286;2023-12-29T15:48:01;8.70;67.40
11597;DHT22;5854;48.072;16.286;2023-12-29T15:50:30;8.70;67.60
11597;DHT22;5854;48.072;16.286;2023-12-29T15:52:57;8.80;65.30
11597;DHT22;5854;48.072;16.286;2023-12-29T15:55:24;8.70;65.10
11597;DHT22;5854;48.072;16.286;2023-12-29T15:57:51;8.70;65.70